Time,TemperatureF,DewpointF,PressureIn,WindDirection,WindDirectionDegrees,WindSpeedMPH,WindSpeedGustMPH,Humidity,HourlyPrecipIn,Conditions,Clouds,dailyrainin,SoftwareType,DateUTC
2013-03-10 00:00:00,52.8,49.0,30.21,ENE,75,0.0,0.0,87,0.00,,,0.00,Wunderground v.1.15,2013-03-10 05:00:00,
2013-03-10 00:05:00,52.6,48.8,30.20,ENE,75,0.0,1.0,87,0.00,,,0.00,Wunderground v.1.15,2013-03-10 05:05:00,
2013-03-10 00:10:00,52.7,49.5,30.20,ENE,75,0.0,1.0,89,0.00,,,0.00,Wunderground v.1.15,2013-03-10 05:10:00,
2013-03-10 00:20:00,52.2,48.4,30.20,ENE,75,0.0,1.0,87,0.00,,,0.00,Wunderground v.1.15,2013-03-10 05:20:00,
2013-03-10 00:30:00,51.8,48.7,30.20,ENE,75,0.0,0.0,89,0.00,,,0.00,Wunderground v.1.15,2013-03-10 05:30:00,
2013-03-10 00:39:00,51.3,48.5,30.20,ENE,75,0.0,0.0,90,0.00,,,0.00,Wunderground v.1.15,2013-03-10 05:39:00,
2013-03-10 00:45:00,51.5,49.0,30.20,ENE,75,0.0,0.0,91,0.00,,,0.00,Wunderground v.1.15,2013-03-10 05:45:00,
2013-03-10 00:55:00,51.0,48.2,30.20,ENE,75,0.0,0.0,90,0.00,,,0.00,Wunderground v.1.15,2013-03-10 05:55:00,
2013-03-10 01:04:00,50.8,48.3,30.19,ENE,75,0.0,1.0,91,0.00,,,0.00,Wunderground v.1.15,2013-03-10 06:04:00,
2013-03-10 01:10:00,51.2,49.0,30.19,ENE,75,0.0,1.0,92,0.00,,,0.00,Wunderground v.1.15,2013-03-10 06:10:00,
2013-03-10 01:20:00,51.6,49.4,30.19,ENE,75,0.0,1.0,92,0.00,,,0.00,Wunderground v.1.15,2013-03-10 06:20:00,
2013-03-10 01:30:00,52.4,50.1,30.18,ESE,104,0.0,0.0,92,0.00,,,0.00,Wunderground v.1.15,2013-03-10 06:30:00,
2013-03-10 01:40:00,52.5,50.2,30.18,ESE,104,0.0,0.0,92,0.00,,,0.00,Wunderground v.1.15,2013-03-10 06:40:00,
2013-03-10 01:50:00,52.2,49.9,30.18,ESE,105,0.0,0.0,92,0.00,,,0.00,Wunderground v.1.15,2013-03-10 06:50:00,
2013-03-10 03:00:00,52.4,50.1,30.18,ESE,104,0.0,0.0,92,0.00,,,0.00,Wunderground v.1.15,2013-03-10 07:00:00,
2013-03-10 03:10:00,52.4,50.1,30.17,ESE,104,0.0,0.0,92,0.00,,,0.00,Wunderground v.1.15,2013-03-10 07:10:00,
2013-03-10 03:19:00,52.5,50.2,30.17,ESE,104,0.0,0.0,92,0.00,,,0.00,Wunderground v.1.15,2013-03-10 07:19:00,
2013-03-10 03:25:00,52.5,50.2,30.16,ESE,104,0.0,0.0,92,0.00,,,0.00,Wunderground v.1.15,2013-03-10 07:25:00,
2013-03-10 03:35:00,52.7,50.4,30.16,ESE,104,0.0,0.0,92,0.00,,,0.00,Wunderground v.1.15,2013-03-10 07:35:00,
2013-03-10 03:45:00,52.5,49.9,30.16,ESE,104,0.0,0.0,91,0.00,,,0.00,Wunderground v.1.15,2013-03-10 07:45:00,
2013-03-10 03:55:00,52.3,50.0,30.16,ESE,104,0.0,0.0,92,0.00,,,0.00,Wunderground v.1.15,2013-03-10 07:55:00,
2013-03-10 04:05:00,52.7,50.7,30.15,ENE,76,0.0,1.0,93,0.00,,,0.00,Wunderground v.1.15,2013-03-10 08:05:00,
2013-03-10 04:15:00,52.7,50.4,30.15,ENE,77,0.0,1.0,92,0.00,,,0.00,Wunderground v.1.15,2013-03-10 08:15:00,
2013-03-10 04:25:00,52.9,50.6,30.15,ENE,76,0.0,1.0,92,0.00,,,0.00,Wunderground v.1.15,2013-03-10 08:25:00,
2013-03-10 04:30:00,52.9,50.6,30.15,ENE,76,0.0,0.0,92,0.00,,,0.00,Wunderground v.1.15,2013-03-10 08:30:00,
2013-03-10 04:35:00,52.9,50.6,30.15,ENE,77,0.0,0.0,92,0.00,,,0.00,Wunderground v.1.15,2013-03-10 08:35:00,
2013-03-10 04:45:00,53.0,50.7,30.16,ENE,76,0.0,0.0,92,0.00,,,0.00,Wunderground v.1.15,2013-03-10 08:45:00,
2013-03-10 04:54:00,53.0,50.7,30.16,ENE,76,0.0,0.0,92,0.00,,,0.00,Wunderground v.1.15,2013-03-10 08:54:00,
2013-03-10 05:00:00,52.9,50.6,30.16,ENE,77,0.0,0.0,92,0.00,,,0.00,Wunderground v.1.15,2013-03-10 09:00:00,
2013-03-10 05:10:00,51.7,48.9,30.16,ENE,76,0.0,1.0,90,0.00,,,0.00,Wunderground v.1.15,2013-03-10 09:10:00,
2013-03-10 05:15:00,50.8,48.0,30.15,ENE,76,0.0,1.0,90,0.00,,,0.00,Wunderground v.1.15,2013-03-10 09:15:00,
2013-03-10 05:25:00,51.1,48.9,30.15,ENE,77,0.0,1.0,92,0.00,,,0.00,Wunderground v.1.15,2013-03-10 09:25:00,
2013-03-10 05:35:00,49.5,47.3,30.15,ENE,76,0.0,0.0,92,0.00,,,0.00,Wunderground v.1.15,2013-03-10 09:35:00,
2013-03-10 05:45:00,49.8,48.1,30.16,ENE,76,0.0,0.0,94,0.00,,,0.00,Wunderground v.1.15,2013-03-10 09:45:00,
2013-03-10 05:55:00,49.6,47.7,30.16,ENE,77,0.0,0.0,93,0.00,,,0.00,Wunderground v.1.15,2013-03-10 09:55:00,
2013-03-10 06:04:00,48.5,46.6,30.16,ENE,77,0.0,1.0,93,0.00,,,0.00,Wunderground v.1.15,2013-03-10 10:04:00,
2013-03-10 06:10:00,48.1,46.2,30.16,ENE,77,0.0,1.0,93,0.00,,,0.00,Wunderground v.1.15,2013-03-10 10:10:00,
2013-03-10 06:20:00,47.7,45.8,30.16,ENE,77,0.0,1.0,93,0.00,,,0.00,Wunderground v.1.15,2013-03-10 10:20:00,
2013-03-10 06:30:00,47.9,46.3,30.16,ENE,77,0.0,0.0,94,0.00,,,0.00,Wunderground v.1.15,2013-03-10 10:30:00,
2013-03-10 06:40:00,47.7,46.1,30.16,ENE,77,0.0,0.0,94,0.00,,,0.00,Wunderground v.1.15,2013-03-10 10:40:00,
2013-03-10 06:50:00,47.4,45.8,30.17,ENE,77,0.0,0.0,94,0.00,,,0.00,Wunderground v.1.15,2013-03-10 10:50:00,
2013-03-10 06:55:00,47.5,45.9,30.16,ENE,77,0.0,0.0,94,0.00,,,0.00,Wunderground v.1.15,2013-03-10 10:55:00,
2013-03-10 07:05:00,48.8,47.7,30.17,ENE,76,0.0,0.0,96,0.00,,,0.00,Wunderground v.1.15,2013-03-10 11:05:00,
2013-03-10 07:10:00,49.4,48.3,30.17,ENE,77,0.0,0.0,96,0.00,,,0.00,Wunderground v.1.15,2013-03-10 11:10:00,
2013-03-10 07:19:00,49.8,48.4,30.17,ENE,77,0.0,0.0,95,0.00,,,0.00,Wunderground v.1.15,2013-03-10 11:19:00,
2013-03-10 07:25:00,50.1,48.7,30.17,ENE,76,0.0,0.0,95,0.00,,,0.00,Wunderground v.1.15,2013-03-10 11:25:00,
2013-03-10 07:35:00,50.3,48.9,30.17,ENE,76,0.0,0.0,95,0.00,,,0.00,Wunderground v.1.15,2013-03-10 11:35:00,
2013-03-10 07:45:00,49.5,47.8,30.17,ENE,77,0.0,0.0,94,0.00,,,0.00,Wunderground v.1.15,2013-03-10 11:45:00,
2013-03-10 07:55:00,48.5,46.9,30.18,ENE,76,0.0,0.0,94,0.00,,,0.00,Wunderground v.1.15,2013-03-10 11:55:00,
2013-03-10 08:05:00,49.4,48.0,30.18,ENE,77,0.0,0.0,95,0.00,,,0.00,Wunderground v.1.15,2013-03-10 12:05:00,
2013-03-10 08:15:00,51.9,50.8,30.18,ENE,76,0.0,0.0,96,0.00,,,0.00,Wunderground v.1.15,2013-03-10 12:15:00,
2013-03-10 08:25:00,53.6,52.2,30.18,NE,40,0.0,1.0,95,0.00,,,0.00,Wunderground v.1.15,2013-03-10 12:25:00,
2013-03-10 08:30:00,54.5,53.1,30.19,NE,48,1.0,1.0,95,0.00,,,0.00,Wunderground v.1.15,2013-03-10 12:30:00,
2013-03-10 08:40:00,56.3,54.3,30.19,NE,52,1.0,2.0,93,0.00,,,0.00,Wunderground v.1.15,2013-03-10 12:40:00,
2013-03-10 08:50:00,57.9,54.4,30.19,ENE,74,2.0,3.0,88,0.00,,,0.00,Wunderground v.1.15,2013-03-10 12:50:00,
2013-03-10 08:55:00,58.6,54.1,30.19,East,79,2.0,5.0,85,0.00,,,0.00,Wunderground v.1.15,2013-03-10 12:55:00,
2013-03-10 09:05:00,60.5,55.0,30.19,NE,53,3.0,3.0,82,0.00,,,0.00,Wunderground v.1.15,2013-03-10 13:05:00,
2013-03-10 09:15:00,62.0,54.7,30.20,ENE,72,3.0,4.0,77,0.00,,,0.00,Wunderground v.1.15,2013-03-10 13:15:00,
2013-03-10 09:25:00,63.3,54.5,30.20,ENE,57,4.0,4.0,73,0.00,,,0.00,Wunderground v.1.15,2013-03-10 13:25:00,
2013-03-10 09:35:00,64.7,55.1,30.20,NE,36,4.0,5.0,71,0.00,,,0.00,Wunderground v.1.15,2013-03-10 13:35:00,
2013-03-10 09:45:00,66.1,55.2,30.20,NE,43,4.0,5.0,68,0.00,,,0.00,Wunderground v.1.15,2013-03-10 13:45:00,
2013-03-10 09:55:00,67.0,54.4,30.19,ENE,75,4.0,7.0,64,0.00,,,0.00,Wunderground v.1.15,2013-03-10 13:55:00,
2013-03-10 10:05:00,68.5,55.0,30.19,East,79,4.0,6.0,62,0.00,,,0.00,Wunderground v.1.15,2013-03-10 14:05:00,
2013-03-10 10:15:00,69.2,54.3,30.20,ESE,110,5.0,7.0,59,0.00,,,0.00,Wunderground v.1.15,2013-03-10 14:15:00,
2013-03-10 10:20:00,69.7,54.7,30.20,ENE,72,6.0,6.0,59,0.00,,,0.00,Wunderground v.1.15,2013-03-10 14:20:00,
2013-03-10 10:30:00,70.1,54.6,30.20,East,79,7.0,10.0,58,0.00,,,0.00,Wunderground v.1.15,2013-03-10 14:30:00,
2013-03-10 10:40:00,70.6,54.1,30.20,East,86,7.0,7.0,56,0.00,,,0.00,Wunderground v.1.15,2013-03-10 14:40:00,
2013-03-10 10:50:00,71.2,54.2,30.20,East,79,8.0,8.0,55,0.00,,,0.00,Wunderground v.1.15,2013-03-10 14:50:00,
2013-03-10 11:00:00,71.7,53.7,30.19,East,95,8.0,10.0,53,0.00,,,0.00,Wunderground v.1.15,2013-03-10 15:00:00,
2013-03-10 11:10:00,72.3,53.2,30.19,ESE,121,9.0,9.0,51,0.00,,,0.00,Wunderground v.1.15,2013-03-10 15:10:00,
2013-03-10 11:20:00,72.6,52.9,30.17,SE,135,9.0,10.0,50,0.00,,,0.00,Wunderground v.1.15,2013-03-10 15:20:00,
2013-03-10 11:30:00,72.9,53.2,30.16,East,86,10.0,10.0,50,0.00,,,0.00,Wunderground v.1.15,2013-03-10 15:30:00,
2013-03-10 11:40:00,73.0,53.8,30.15,SE,142,10.0,10.0,51,0.00,,,0.00,Wunderground v.1.15,2013-03-10 15:40:00,
2013-03-10 11:50:00,72.9,54.2,30.15,SE,132,11.0,11.0,52,0.00,,,0.00,Wunderground v.1.15,2013-03-10 15:50:00,
2013-03-10 12:00:00,73.5,55.3,30.14,East,80,10.0,10.0,53,0.00,,,0.00,Wunderground v.1.15,2013-03-10 16:00:00,
2013-03-10 12:10:00,74.5,56.2,30.15,East,90,10.0,14.0,53,0.00,,,0.00,Wunderground v.1.15,2013-03-10 16:10:00,
2013-03-10 12:20:00,72.9,54.8,30.15,ESE,108,10.0,14.0,53,0.00,,,0.00,Wunderground v.1.15,2013-03-10 16:20:00,
2013-03-10 12:30:00,73.8,56.1,30.15,East,89,9.0,9.0,54,0.00,,,0.00,Wunderground v.1.15,2013-03-10 16:30:00,
2013-03-10 12:40:00,73.7,55.5,30.15,ENE,71,9.0,9.0,53,0.00,,,0.00,Wunderground v.1.15,2013-03-10 16:40:00,
2013-03-10 12:50:00,74.3,55.5,30.15,ENE,78,8.0,11.0,52,0.00,,,0.00,Wunderground v.1.15,2013-03-10 16:50:00,
2013-03-10 13:00:00,73.2,55.0,30.15,ENE,62,9.0,9.0,53,0.00,,,0.00,Wunderground v.1.15,2013-03-10 17:00:00,
2013-03-10 13:10:00,75.9,55.4,30.15,East,101,9.0,9.0,49,0.00,,,0.00,Wunderground v.1.15,2013-03-10 17:10:00,
2013-03-10 13:15:00,75.4,55.5,30.15,East,99,8.0,19.0,50,0.00,,,0.00,Wunderground v.1.15,2013-03-10 17:15:00,
2013-03-10 13:25:00,75.1,55.2,30.14,East,101,7.0,8.0,50,0.00,,,0.00,Wunderground v.1.15,2013-03-10 17:25:00,
2013-03-10 13:34:00,75.3,55.9,30.14,SE,128,9.0,9.0,51,0.00,,,0.00,Wunderground v.1.15,2013-03-10 17:34:00,
2013-03-10 13:40:00,76.0,56.0,30.14,SE,125,9.0,9.0,50,0.00,,,0.00,Wunderground v.1.15,2013-03-10 17:40:00,
2013-03-10 13:50:00,77.2,54.8,30.13,ESE,111,8.0,10.0,46,0.00,,,0.00,Wunderground v.1.15,2013-03-10 17:50:00,
2013-03-10 14:00:00,76.0,54.3,30.13,ENE,75,8.0,8.0,47,0.00,,,0.00,Wunderground v.1.15,2013-03-10 18:00:00,
2013-03-10 14:05:00,76.0,54.3,30.13,SE,125,8.0,16.0,47,0.00,,,0.00,Wunderground v.1.15,2013-03-10 18:05:00,
2013-03-10 14:15:00,76.6,55.4,30.12,East,89,7.0,16.0,48,0.00,,,0.00,Wunderground v.1.15,2013-03-10 18:15:00,
2013-03-10 14:25:00,77.6,54.0,30.12,East,90,8.0,8.0,44,0.00,,,0.00,Wunderground v.1.15,2013-03-10 18:25:00,
2013-03-10 14:30:00,76.0,53.7,30.12,ENE,75,8.0,8.0,46,0.00,,,0.00,Wunderground v.1.15,2013-03-10 18:30:00,
2013-03-10 14:40:00,76.7,55.5,30.11,East,98,6.0,6.0,48,0.00,,,0.00,Wunderground v.1.15,2013-03-10 18:40:00,
2013-03-10 14:50:00,78.6,54.2,30.11,East,92,9.0,9.0,43,0.00,,,0.00,Wunderground v.1.15,2013-03-10 18:50:00,
2013-03-10 15:00:00,77.4,53.8,30.11,ESE,111,7.0,7.0,44,0.00,,,0.00,Wunderground v.1.15,2013-03-10 19:00:00,
2013-03-10 15:10:00,77.4,54.4,30.11,East,97,5.0,16.0,45,0.00,,,0.00,Wunderground v.1.15,2013-03-10 19:10:00,
2013-03-10 15:15:00,76.9,53.9,30.11,SSE,153,5.0,16.0,45,0.00,,,0.00,Wunderground v.1.15,2013-03-10 19:15:00,
2013-03-10 15:25:00,78.7,54.3,30.11,East,89,7.0,16.0,43,0.00,,,0.00,Wunderground v.1.15,2013-03-10 19:25:00,
2013-03-10 15:35:00,76.8,53.2,30.10,ESE,105,7.0,9.0,44,0.00,,,0.00,Wunderground v.1.15,2013-03-10 19:35:00,
2013-03-10 15:40:00,76.2,53.3,30.10,ENE,68,7.0,7.0,45,0.00,,,0.00,Wunderground v.1.15,2013-03-10 19:40:00,
2013-03-10 15:50:00,76.3,53.4,30.11,ESE,114,8.0,8.0,45,0.00,,,0.00,Wunderground v.1.15,2013-03-10 19:50:00,
2013-03-10 16:00:00,77.0,53.4,30.10,ESE,105,7.0,7.0,44,0.00,,,0.00,Wunderground v.1.15,2013-03-10 20:00:00,
2013-03-10 16:05:00,76.7,52.5,30.10,East,79,7.0,10.0,43,0.00,,,0.00,Wunderground v.1.15,2013-03-10 20:05:00,
2013-03-10 16:15:00,77.0,54.0,30.10,East,91,8.0,14.0,45,0.00,,,0.00,Wunderground v.1.15,2013-03-10 20:15:00,
2013-03-10 16:25:00,78.6,52.9,30.09,East,94,9.0,9.0,41,0.00,,,0.00,Wunderground v.1.15,2013-03-10 20:25:00,
2013-03-10 16:35:00,77.9,52.3,30.09,ESE,102,7.0,8.0,41,0.00,,,0.00,Wunderground v.1.15,2013-03-10 20:35:00,
2013-03-10 16:45:00,77.9,53.0,30.09,ESE,110,7.0,8.0,42,0.00,,,0.00,Wunderground v.1.15,2013-03-10 20:45:00,
2013-03-10 16:54:00,78.4,51.4,30.09,ESE,102,6.0,8.0,39,0.00,,,0.00,Wunderground v.1.15,2013-03-10 20:54:00,
2013-03-10 17:00:00,78.9,52.5,30.09,ESE,102,7.0,9.0,40,0.00,,,0.00,Wunderground v.1.15,2013-03-10 21:00:00,
2013-03-10 17:10:00,78.2,51.9,30.09,East,87,7.0,7.0,40,0.00,,,0.00,Wunderground v.1.15,2013-03-10 21:10:00,
2013-03-10 17:20:00,77.5,51.3,30.09,ESE,120,8.0,8.0,40,0.00,,,0.00,Wunderground v.1.15,2013-03-10 21:20:00,
2013-03-10 17:30:00,77.3,51.8,30.10,ESE,107,8.0,8.0,41,0.00,,,0.00,Wunderground v.1.15,2013-03-10 21:30:00,
2013-03-10 17:39:00,77.2,52.3,30.09,SE,142,7.0,11.0,42,0.00,,,0.00,Wunderground v.1.15,2013-03-10 21:39:00,
2013-03-10 17:45:00,77.1,52.2,30.09,ESE,106,7.0,11.0,42,0.00,,,0.00,Wunderground v.1.15,2013-03-10 21:45:00,
2013-03-10 17:55:00,76.5,51.7,30.09,ESE,108,7.0,8.0,42,0.00,,,0.00,Wunderground v.1.15,2013-03-10 21:55:00,
2013-03-10 18:05:00,76.3,51.5,30.09,ENE,72,7.0,12.0,42,0.00,,,0.00,Wunderground v.1.15,2013-03-10 22:05:00,
2013-03-10 18:10:00,75.9,51.8,30.09,East,83,6.0,12.0,43,0.00,,,0.00,Wunderground v.1.15,2013-03-10 22:10:00,
2013-03-10 18:20:00,75.3,51.9,30.09,East,100,7.0,7.0,44,0.00,,,0.00,Wunderground v.1.15,2013-03-10 22:20:00,
2013-03-10 18:30:00,74.9,52.1,30.09,ESE,122,7.0,7.0,45,0.00,,,0.00,Wunderground v.1.15,2013-03-10 22:30:00,
2013-03-10 18:35:00,74.7,51.9,30.09,ESE,110,5.0,7.0,45,0.00,,,0.00,Wunderground v.1.15,2013-03-10 22:35:00,
2013-03-10 18:45:00,73.7,53.9,30.09,ENE,66,6.0,6.0,50,0.00,,,0.00,Wunderground v.1.15,2013-03-10 22:45:00,
2013-03-10 18:55:00,72.6,54.0,30.10,East,92,6.0,8.0,52,0.00,,,0.00,Wunderground v.1.15,2013-03-10 22:55:00,
2013-03-10 19:00:00,72.2,54.1,30.10,East,100,7.0,7.0,53,0.00,,,0.00,Wunderground v.1.15,2013-03-10 23:00:00,
2013-03-10 19:10:00,71.3,55.3,30.10,ENE,66,7.0,7.0,57,0.00,,,0.00,Wunderground v.1.15,2013-03-10 23:10:00,
2013-03-10 19:19:00,70.3,55.3,30.11,ENE,71,6.0,13.0,59,0.00,,,0.00,Wunderground v.1.15,2013-03-10 23:19:00,
2013-03-10 19:25:00,69.9,55.8,30.11,ENE,71,7.0,13.0,61,0.00,,,0.00,Wunderground v.1.15,2013-03-10 23:25:00,
2013-03-10 19:35:00,69.3,55.7,30.11,East,80,7.0,7.0,62,0.00,,,0.00,Wunderground v.1.15,2013-03-10 23:35:00,
2013-03-10 19:44:00,68.8,55.2,30.11,East,98,6.0,6.0,62,0.00,,,0.00,Wunderground v.1.15,2013-03-10 23:44:00,
2013-03-10 19:50:00,68.4,55.3,30.11,East,79,5.0,5.0,63,0.00,,,0.00,Wunderground v.1.15,2013-03-10 23:50:00,
2013-03-10 20:00:00,67.7,55.1,30.12,ENE,75,4.0,4.0,64,0.00,,,0.00,Wunderground v.1.15,2013-03-11 00:00:00,
2013-03-10 20:09:00,67.2,55.0,30.12,East,92,4.0,4.0,65,0.00,,,0.00,Wunderground v.1.15,2013-03-11 00:09:00,
2013-03-10 20:15:00,67.0,55.3,30.12,East,99,4.0,5.0,66,0.00,,,0.00,Wunderground v.1.15,2013-03-11 00:15:00,
2013-03-10 20:25:00,66.6,55.3,30.12,East,95,4.0,11.0,67,0.00,,,0.00,Wunderground v.1.15,2013-03-11 00:25:00,
2013-03-10 20:35:00,66.0,55.1,30.12,East,91,3.0,5.0,68,0.00,,,0.00,Wunderground v.1.15,2013-03-11 00:35:00,
2013-03-10 20:40:00,65.5,55.1,30.12,ENE,77,3.0,3.0,69,0.00,,,0.00,Wunderground v.1.15,2013-03-11 00:40:00,
2013-03-10 20:50:00,65.2,55.2,30.12,East,89,3.0,3.0,70,0.00,,,0.00,Wunderground v.1.15,2013-03-11 00:50:00,
2013-03-10 21:00:00,65.0,55.0,30.12,ENE,73,3.0,3.0,70,0.00,,,0.00,Wunderground v.1.15,2013-03-11 01:00:00,
2013-03-10 21:10:00,64.6,54.6,30.13,ENE,70,3.0,3.0,70,0.00,,,0.00,Wunderground v.1.15,2013-03-11 01:10:00,
2013-03-10 21:19:00,64.3,54.3,30.13,East,80,3.0,11.0,70,0.00,,,0.00,Wunderground v.1.15,2013-03-11 01:19:00,
2013-03-10 21:25:00,63.9,54.3,30.13,East,87,2.0,11.0,71,0.00,,,0.00,Wunderground v.1.15,2013-03-11 01:25:00,
2013-03-10 21:35:00,63.8,54.2,30.14,East,96,2.0,2.0,71,0.00,,,0.00,Wunderground v.1.15,2013-03-11 01:35:00,
2013-03-10 21:45:00,62.9,53.4,30.14,ENE,78,1.0,2.0,71,0.00,,,0.00,Wunderground v.1.15,2013-03-11 01:45:00,
2013-03-10 21:55:00,61.5,52.8,30.14,East,80,0.0,1.0,73,0.00,,,0.00,Wunderground v.1.15,2013-03-11 01:55:00,
2013-03-10 22:04:00,60.6,53.0,30.14,East,93,0.0,1.0,76,0.00,,,0.00,Wunderground v.1.15,2013-03-11 02:04:00,
2013-03-10 22:10:00,61.0,53.7,30.14,East,91,1.0,8.0,77,0.00,,,0.00,Wunderground v.1.15,2013-03-11 02:10:00,
2013-03-10 22:20:00,61.4,54.1,30.14,East,87,1.0,8.0,77,0.00,,,0.00,Wunderground v.1.15,2013-03-11 02:20:00,
2013-03-10 22:30:00,61.6,54.0,30.14,ESE,103,2.0,2.0,76,0.00,,,0.00,Wunderground v.1.15,2013-03-11 02:30:00,
2013-03-10 22:35:00,61.3,54.0,30.14,East,84,1.0,2.0,77,0.00,,,0.00,Wunderground v.1.15,2013-03-11 02:35:00,
2013-03-10 22:45:00,61.0,54.1,30.14,ESE,114,1.0,2.0,78,0.00,,,0.00,Wunderground v.1.15,2013-03-11 02:45:00,
2013-03-10 22:55:00,60.6,53.7,30.14,East,87,1.0,1.0,78,0.00,,,0.00,Wunderground v.1.15,2013-03-11 02:55:00,
2013-03-10 23:00:00,60.6,54.0,30.14,ESE,108,1.0,2.0,79,0.00,,,0.00,Wunderground v.1.15,2013-03-11 03:00:00,
2013-03-10 23:10:00,60.4,53.9,30.14,East,83,1.0,1.0,79,0.00,,,0.00,Wunderground v.1.15,2013-03-11 03:10:00,
2013-03-10 23:19:00,59.3,53.1,30.14,ENE,71,0.0,4.0,80,0.00,,,0.00,Wunderground v.1.15,2013-03-11 03:19:00,
2013-03-10 23:25:00,58.7,52.5,30.14,ENE,67,0.0,4.0,80,0.00,,,0.00,Wunderground v.1.15,2013-03-11 03:25:00,
2013-03-10 23:35:00,58.4,52.9,30.14,ENE,65,0.0,0.0,82,0.00,,,0.00,Wunderground v.1.15,2013-03-11 03:35:00,
2013-03-10 23:45:00,57.6,52.1,30.14,ENE,69,0.0,0.0,82,0.00,,,0.00,Wunderground v.1.15,2013-03-11 03:45:00,
2013-03-10 23:55:00,57.1,52.3,30.14,ENE,70,0.0,0.0,84,0.00,,,0.00,Wunderground v.1.15,2013-03-11 03:55:00,